sensor_id;sensor_type;location;lat;lon;timestamp;temperature;humidity
52397;DHT22;38322;53.108;6.308;2022-09-28T05:03:03;6.80;99.90
52397;DHT22;38322;53.108;6.308;2022-09-28T05:05:29;6.80;99.90
52397;DHT22;38322;53.108;6.308;2022-09-28T05:07:57;6.90;99.90
52397;DHT22;38322;53.108;6.308;2022-09-28T05:10:23;6.90;99.90
52397;DHT22;38322;53.108;6.308;2022-09-28T05:12:49;6.90;99.90
52397;DHT22;38322;53.108;6.308;2022-09-28T05:15:15;6.80;99.90
52397;DHT22;38322;53.108;6.308;2022-09-28T05:17:40;6.90;99.90
52397;DHT22;38322;53.108;6.308;2022-09-28T05:20:07;6.90;99.90
52397;DHT22;38322;53.108;6.308;2022-09-28T05:22:33;6.80;99.90
52397;DHT22;38322;53.108;6.308;2022-09-28T05:24:59;6.90;99.90
52397;DHT22;38322;53.108;6.308;2022-09-28T05:27:25;6.80;99.90
52397;DHT22;38322;53.108;6.308;2022-09-28T05:29:51;6.80;99.90
52397;DHT22;38322;53.108;6.308;2022-09-28T05:32:16;6.80;99.90
52397;DHT22;38322;53.108;6.308;2022-09-28T05:34:42;6.80;99.90
52397;DHT22;38322;53.108;6.308;2022-09-28T05:37:08;6.80;99.90
52397;DHT22;38322;53.108;6.308;2022-09-28T05:39:33;6.80;99.90
52397;DHT22;38322;53.108;6.308;2022-09-28T05:41:59;6.80;99.90
52397;DHT22;38322;53.108;6.308;2022-09-28T05:44:25;6.80;99.90
52397;DHT22;38322;53.108;6.308;2022-09-28T05:46:52;6.80;99.90
52397;DHT22;38322;53.108;6.308;2022-09-28T05:49:18;6.80;99.90
52397;DHT22;38322;53.108;6.308;2022-09-28T05:51:44;6.80;99.90
52397;DHT22;38322;53.108;6.308;2022-09-28T05:54:10;6.80;99.90
52397;DHT22;38322;53.108;6.308;2022-09-28T05:56:36;6.90;99.90
52397;DHT22;38322;53.108;6.308;2022-09-28T05:59:02;6.90;99.90
52397;DHT22;38322;53.108;6.308;2022-09-28T06:01:29;6.90;99.90
52397;DHT22;38322;53.108;6.308;2022-09-28T06:03:55;6.90;99.90
52397;DHT22;38322;53.108;6.308;2022-09-28T06:06:21;7.00;99.90
52397;DHT22;38322;53.108;6.308;2022-09-28T06:08:47;7.00;99.90
52397;DHT22;38322;53.108;6.308;2022-09-28T06:11:13;7.00;99.90
52397;DHT22;38322;53.108;6.308;2022-09-28T06:13:38;7.00;99.90
52397;DHT22;38322;53.108;6.308;2022-09-28T06:16:06;7.00;99.90
52397;DHT22;38322;53.108;6.308;2022-09-28T06:18:33;7.10;99.90
52397;DHT22;38322;53.108;6.308;2022-09-28T06:20:59;7.10;99.90
52397;DHT22;38322;53.108;6.308;2022-09-28T06:23:24;7.10;99.90
52397;DHT22;38322;53.108;6.308;2022-09-28T06:25:50;7.20;99.90
52397;DHT22;38322;53.108;6.308;2022-09-28T06:28:16;7.20;99.90
52397;DHT22;38322;53.108;6.308;2022-09-28T06:30:42;7.20;99.90
52397;DHT22;38322;53.108;6.308;2022-09-28T06:33:11;7.20;99.90
52397;DHT22;38322;53.108;6.308;2022-09-28T06:35:37;7.30;99.90
52397;DHT22;38322;53.108;6.308;2022-09-28T06:38:03;7.30;99.90
52397;DHT22;38322;53.108;6.308;2022-09-28T06:40:29;7.40;99.90
52397;DHT22;38322;53.108;6.308;2022-09-28T06:42:58;7.40;99.90
52397;DHT22;38322;53.108;6.308;2022-09-28T06:45:25;7.50;99.90
52397;DHT22;38322;53.108;6.308;2022-09-28T06:47:53;7.60;99.90
52397;DHT22;38322;53.108;6.308;2022-09-28T06:50:20;7.70;99.90
52397;DHT22;38322;53.108;6.308;2022-09-28T06:52:49;7.80;99.90
52397;DHT22;38322;53.108;6.308;2022-09-28T06:55:15;7.80;99.90
52397;DHT22;38322;53.108;6.308;2022-09-28T06:57:40;7.90;99.90
52397;DHT22;38322;53.108;6.308;2022-09-28T07:00:07;7.90;99.90
52397;DHT22;38322;53.108;6.308;2022-09-28T07:02:33;7.90;99.90
52397;DHT22;38322;53.108;6.308;2022-09-28T07:04:58;8.00;99.90
52397;DHT22;38322;53.108;6.308;2022-09-28T07:07:24;8.00;99.90
52397;DHT22;38322;53.108;6.308;2022-09-28T07:09:56;8.10;99.90
52397;DHT22;38322;53.108;6.308;2022-09-28T07:12:22;8.10;99.90
52397;DHT22;38322;53.108;6.308;2022-09-28T07:14:49;8.30;99.90
52397;DHT22;38322;53.108;6.308;2022-09-28T07:17:21;8.40;99.90
52397;DHT22;38322;53.108;6.308;2022-09-28T07:19:47;8.50;99.90
52397;DHT22;38322;53.108;6.308;2022-09-28T07:22:22;8.60;99.90
52397;DHT22;38322;53.108;6.308;2022-09-28T07:24:48;8.60;99.90
52397;DHT22;38322;53.108;6.308;2022-09-28T07:27:14;8.60;99.90
52397;DHT22;38322;53.108;6.308;2022-09-28T07:29:40;8.70;99.90
52397;DHT22;38322;53.108;6.308;2022-09-28T07:32:06;8.70;99.90
52397;DHT22;38322;53.108;6.308;2022-09-28T07:34:32;8.70;99.90
52397;DHT22;38322;53.108;6.308;2022-09-28T07:37:04;8.80;99.90
52397;DHT22;38322;53.108;6.308;2022-09-28T07:39:33;8.80;99.90
52397;DHT22;38322;53.108;6.308;2022-09-28T07:42:19;8.80;99.90
52397;DHT22;38322;53.108;6.308;2022-09-28T07:44:44;8.90;99.90
52397;DHT22;38322;53.108;6.308;2022-09-28T07:47:11;8.90;99.90
52397;DHT22;38322;53.108;6.308;2022-09-28T07:49:37;8.90;99.90
52397;DHT22;38322;53.108;6.308;2022-09-28T07:52:02;8.90;99.90
52397;DHT22;38322;53.108;6.308;2022-09-28T07:54:28;8.90;99.90
52397;DHT22;38322;53.108;6.308;2022-09-28T07:56:56;8.90;99.90
52397;DHT22;38322;53.108;6.308;2022-09-28T07:59:21;9.00;99.90
52397;DHT22;38322;53.108;6.308;2022-09-28T08:01:47;9.00;99.90
52397;DHT22;38322;53.108;6.308;2022-09-28T08:04:14;9.10;99.90
52397;DHT22;38322;53.108;6.308;2022-09-28T08:06:40;9.10;99.90
52397;DHT22;38322;53.108;6.308;2022-09-28T08:09:06;9.10;99.90
52397;DHT22;38322;53.108;6.308;2022-09-28T08:11:31;9.20;99.90
52397;DHT22;38322;53.108;6.308;2022-09-28T08:13:57;9.20;99.90
52397;DHT22;38322;53.108;6.308;2022-09-28T08:16:25;9.30;99.90
52397;DHT22;38322;53.108;6.308;2022-09-28T08:18:51;9.30;99.90
52397;DHT22;38322;53.108;6.308;2022-09-28T08:21:20;9.40;99.90
52397;DHT22;38322;53.108;6.308;2022-09-28T08:24:05;9.40;99.90
52397;DHT22;38322;53.108;6.308;2022-09-28T08:26:31;9.50;99.90
52397;DHT22;38322;53.108;6.308;2022-09-28T08:28:56;9.50;99.90
52397;DHT22;38322;53.108;6.308;2022-09-28T08:31:22;9.60;99.90
52397;DHT22;38322;53.108;6.308;2022-09-28T08:33:48;9.60;99.90
52397;DHT22;38322;53.108;6.308;2022-09-28T08:36:18;9.60;99.90
52397;DHT22;38322;53.108;6.308;2022-09-28T08:38:45;9.80;99.90
52397;DHT22;38322;53.108;6.308;2022-09-28T08:46:18;10.00;99.90
52397;DHT22;38322;53.108;6.308;2022-09-28T08:48:52;10.10;99.90
52397;DHT22;38322;53.108;6.308;2022-09-28T08:54:04;10.20;99.90
52397;DHT22;38322;53.108;6.308;2022-09-28T08:56:40;10.20;99.90
52397;DHT22;38322;53.108;6.308;2022-09-28T08:59:13;10.30;99.90
52397;DHT22;38322;53.108;6.308;2022-09-28T09:01:41;10.40;99.90
52397;DHT22;38322;53.108;6.308;2022-09-28T09:04:09;10.50;99.90
52397;DHT22;38322;53.108;6.308;2022-09-28T09:06:58;10.60;99.90
52397;DHT22;38322;53.108;6.308;2022-09-28T09:09:46;10.60;99.90
52397;DHT22;38322;53.108;6.308;2022-09-28T09:12:47;10.70;99.90
52397;DHT22;38322;53.108;6.308;2022-09-28T09:15:18;10.70;99.90
52397;DHT22;38322;53.108;6.308;2022-09-28T09:22:57;10.80;99.90
52397;DHT22;38322;53.108;6.308;2022-09-28T09:25:38;10.70;99.90
52397;DHT22;38322;53.108;6.308;2022-09-28T09:28:30;10.70;99.90
52397;DHT22;38322;53.108;6.308;2022-09-28T09:31:18;10.80;99.90
52397;DHT22;38322;53.108;6.308;2022-09-28T09:34:06;11.00;99.90
52397;DHT22;38322;53.108;6.308;2022-09-28T09:42:23;11.60;99.90
52397;DHT22;38322;53.108;6.308;2022-09-28T09:47:52;11.90;99.90
52397;DHT22;38322;53.108;6.308;2022-09-28T09:50:27;11.90;99.90
52397;DHT22;38322;53.108;6.308;2022-09-28T09:55:43;11.80;99.90
52397;DHT22;38322;53.108;6.308;2022-09-28T09:58:18;11.80;99.90
52397;DHT22;38322;53.108;6.308;2022-09-28T10:00:49;11.90;99.90
52397;DHT22;38322;53.108;6.308;2022-09-28T10:03:28;12.00;99.90
52397;DHT22;38322;53.108;6.308;2022-09-28T10:05:59;12.10;99.90
52397;DHT22;38322;53.108;6.308;2022-09-28T10:08:27;12.10;99.90
52397;DHT22;38322;53.108;6.308;2022-09-28T10:11:08;12.30;99.90
52397;DHT22;38322;53.108;6.308;2022-09-28T10:13:37;12.50;99.90
52397;DHT22;38322;53.108;6.308;2022-09-28T10:16:05;12.50;99.90
52397;DHT22;38322;53.108;6.308;2022-09-28T10:18:31;12.60;99.90
52397;DHT22;38322;53.108;6.308;2022-09-28T10:20:57;12.60;99.90
52397;DHT22;38322;53.108;6.308;2022-09-28T10:23:26;12.50;99.90
52397;DHT22;38322;53.108;6.308;2022-09-28T10:25:56;12.50;99.90
52397;DHT22;38322;53.108;6.308;2022-09-28T10:28:33;12.60;99.90
52397;DHT22;38322;53.108;6.308;2022-09-28T10:31:00;12.50;99.90
52397;DHT22;38322;53.108;6.308;2022-09-28T10:33:45;12.50;99.90
52397;DHT22;38322;53.108;6.308;2022-09-28T10:36:11;12.50;99.90
52397;DHT22;38322;53.108;6.308;2022-09-28T10:38:37;12.50;99.90
52397;DHT22;38322;53.108;6.308;2022-09-28T10:41:11;12.40;99.90
52397;DHT22;38322;53.108;6.308;2022-09-28T10:43:48;12.40;99.90
52397;DHT22;38322;53.108;6.308;2022-09-28T10:46:33;12.50;99.90
52397;DHT22;38322;53.108;6.308;2022-09-28T10:49:02;12.60;99.90
52397;DHT22;38322;53.108;6.308;2022-09-28T10:54:09;12.60;99.90
52397;DHT22;38322;53.108;6.308;2022-09-28T10:56:39;12.60;99.90
52397;DHT22;38322;53.108;6.308;2022-09-28T11:02:11;12.70;99.90
52397;DHT22;38322;53.108;6.308;2022-09-28T11:04:42;12.80;99.90
52397;DHT22;38322;53.108;6.308;2022-09-28T11:07:18;12.80;99.90
52397;DHT22;38322;53.108;6.308;2022-09-28T11:09:47;12.90;99.90
52397;DHT22;38322;53.108;6.308;2022-09-28T11:12:18;12.90;99.90
52397;DHT22;38322;53.108;6.308;2022-09-28T11:14:47;13.00;99.90
52397;DHT22;38322;53.108;6.308;2022-09-28T11:17:26;13.10;99.90
52397;DHT22;38322;53.108;6.308;2022-09-28T11:19:55;13.10;99.90
52397;DHT22;38322;53.108;6.308;2022-09-28T11:24:51;13.20;99.90
52397;DHT22;38322;53.108;6.308;2022-09-28T11:27:21;13.20;99.90
52397;DHT22;38322;53.108;6.308;2022-09-28T11:29:54;13.30;99.90
52397;DHT22;38322;53.108;6.308;2022-09-28T11:32:29;13.20;99.90
52397;DHT22;38322;53.108;6.308;2022-09-28T11:34:58;13.30;99.90
52397;DHT22;38322;53.108;6.308;2022-09-28T11:37:49;13.30;99.90
52397;DHT22;38322;53.108;6.308;2022-09-28T11:40:43;13.20;99.90
52397;DHT22;38322;53.108;6.308;2022-09-28T11:43:19;13.10;99.90
52397;DHT22;38322;53.108;6.308;2022-09-28T11:45:57;13.10;99.90
52397;DHT22;38322;53.108;6.308;2022-09-28T11:48:35;13.00;99.90
52397;DHT22;38322;53.108;6.308;2022-09-28T11:51:07;12.90;99.90
52397;DHT22;38322;53.108;6.308;2022-09-28T11:53:37;12.70;99.90
52397;DHT22;38322;53.108;6.308;2022-09-28T11:56:16;12.50;99.90
52397;DHT22;38322;53.108;6.308;2022-09-28T11:58:51;12.30;99.90
52397;DHT22;38322;53.108;6.308;2022-09-28T12:01:38;12.20;99.90
52397;DHT22;38322;53.108;6.308;2022-09-28T12:04:10;11.90;99.90
52397;DHT22;38322;53.108;6.308;2022-09-28T12:06:49;11.80;99.90
52397;DHT22;38322;53.108;6.308;2022-09-28T12:09:26;11.80;99.90
52397;DHT22;38322;53.108;6.308;2022-09-28T12:11:59;11.80;99.90
52397;DHT22;38322;53.108;6.308;2022-09-28T12:14:32;11.70;99.90
52397;DHT22;38322;53.108;6.308;2022-09-28T12:17:05;11.70;99.90
52397;DHT22;38322;53.108;6.308;2022-09-28T12:22:09;11.70;99.90
52397;DHT22;38322;53.108;6.308;2022-09-28T12:24:45;11.80;99.90
52397;DHT22;38322;53.108;6.308;2022-09-28T12:27:28;12.10;99.90
52397;DHT22;38322;53.108;6.308;2022-09-28T12:30:02;12.40;99.90
52397;DHT22;38322;53.108;6.308;2022-09-28T12:32:33;12.70;99.90
52397;DHT22;38322;53.108;6.308;2022-09-28T12:35:01;13.00;99.90
52397;DHT22;38322;53.108;6.308;2022-09-28T12:37:46;13.10;99.90
52397;DHT22;38322;53.108;6.308;2022-09-28T12:42:51;13.10;99.90
52397;DHT22;38322;53.108;6.308;2022-09-28T12:50:46;13.20;99.90
52397;DHT22;38322;53.108;6.308;2022-09-28T12:53:20;13.30;99.90
52397;DHT22;38322;53.108;6.308;2022-09-28T12:55:52;13.40;99.90
52397;DHT22;38322;53.108;6.308;2022-09-28T12:58:24;13.60;99.90
52397;DHT22;38322;53.108;6.308;2022-09-28T13:01:10;13.70;99.90
52397;DHT22;38322;53.108;6.308;2022-09-28T13:03:58;13.90;99.90
52397;DHT22;38322;53.108;6.308;2022-09-28T13:09:14;14.00;99.90
52397;DHT22;38322;53.108;6.308;2022-09-28T13:22:38;14.20;99.90
52397;DHT22;38322;53.108;6.308;2022-09-28T13:25:15;14.20;99.90
52397;DHT22;38322;53.108;6.308;2022-09-28T13:27:49;14.20;99.90
52397;DHT22;38322;53.108;6.308;2022-09-28T13:30:16;14.20;99.90
52397;DHT22;38322;53.108;6.308;2022-09-28T13:32:45;14.20;99.90
52397;DHT22;38322;53.108;6.308;2022-09-28T13:35:15;14.20;99.90
52397;DHT22;38322;53.108;6.308;2022-09-28T13:37:44;14.20;99.90
52397;DHT22;38322;53.108;6.308;2022-09-28T13:40:10;14.30;99.90
52397;DHT22;38322;53.108;6.308;2022-09-28T13:45:25;14.50;99.90
52397;DHT22;38322;53.108;6.308;2022-09-28T13:48:09;14.50;99.90
52397;DHT22;38322;53.108;6.308;2022-09-28T13:50:50;14.50;99.90
52397;DHT22;38322;53.108;6.308;2022-09-28T13:53:34;14.60;99.90
52397;DHT22;38322;53.108;6.308;2022-09-28T13:59:00;14.90;99.90
52397;DHT22;38322;53.108;6.308;2022-09-28T14:01:35;15.10;99.90
52397;DHT22;38322;53.108;6.308;2022-09-28T14:04:18;15.20;99.90
52397;DHT22;38322;53.108;6.308;2022-09-28T14:06:55;15.30;99.90
52397;DHT22;38322;53.108;6.308;2022-09-28T14:19:55;14.50;99.90
52397;DHT22;38322;53.108;6.308;2022-09-28T14:22:35;14.40;99.90
52397;DHT22;38322;53.108;6.308;2022-09-28T14:25:13;14.20;99.90
52397;DHT22;38322;53.108;6.308;2022-09-28T14:30:48;14.00;99.90
52397;DHT22;38322;53.108;6.308;2022-09-28T14:35:49;13.80;99.90
52397;DHT22;38322;53.108;6.308;2022-09-28T14:38:19;13.70;99.90
52397;DHT22;38322;53.108;6.308;2022-09-28T14:41:24;13.60;99.90
52397;DHT22;38322;53.108;6.308;2022-09-28T14:44:00;13.60;99.90
52397;DHT22;38322;53.108;6.308;2022-09-28T14:46:30;13.60;99.90
52397;DHT22;38322;53.108;6.308;2022-09-28T14:49:02;13.50;99.90
52397;DHT22;38322;53.108;6.308;2022-09-28T14:56:48;13.30;99.90
52397;DHT22;38322;53.108;6.308;2022-09-28T14:59:21;13.20;99.90
52397;DHT22;38322;53.108;6.308;2022-09-28T15:01:54;13.10;99.90
52397;DHT22;38322;53.108;6.308;2022-09-28T15:04:23;13.10;99.90
52397;DHT22;38322;53.108;6.308;2022-09-28T15:06:53;13.00;99.90
52397;DHT22;38322;53.108;6.308;2022-09-28T15:09:37;12.80;99.90
52397;DHT22;38322;53.108;6.308;2022-09-28T15:12:13;12.70;99.90
52397;DHT22;38322;53.108;6.308;2022-09-28T15:14:44;12.70;99.90
52397;DHT22;38322;53.108;6.308;2022-09-28T15:17:11;12.60;99.90
52397;DHT22;38322;53.108;6.308;2022-09-28T15:22:26;12.50;99.90
52397;DHT22;38322;53.108;6.308;2022-09-28T15:24:56;12.40;99.90
52397;DHT22;38322;53.108;6.308;2022-09-28T15:27:22;12.40;99.90
52397;DHT22;38322;53.108;6.308;2022-09-28T15:29:56;12.30;99.90
52397;DHT22;38322;53.108;6.308;2022-09-28T15:32:23;12.30;99.90
52397;DHT22;38322;53.108;6.308;2022-09-28T15:34:50;12.20;99.90
52397;DHT22;38322;53.108;6.308;2022-09-28T15:37:18;12.20;99.90
52397;DHT22;38322;53.108;6.308;2022-09-28T15:39:48;12.20;99.90
52397;DHT22;38322;53.108;6.308;2022-09-28T15:42:15;12.10;99.90
52397;DHT22;38322;53.108;6.308;2022-09-28T15:44:42;12.10;99.90
52397;DHT22;38322;53.108;6.308;2022-09-28T15:47:25;12.00;99.90
52397;DHT22;38322;53.108;6.308;2022-09-28T15:49:55;12.00;99.90
52397;DHT22;38322;53.108;6.308;2022-09-28T15:52:24;11.90;99.90
52397;DHT22;38322;53.108;6.308;2022-09-28T15:54:51;11.80;99.90
52397;DHT22;38322;53.108;6.308;2022-09-28T15:57:34;11.80;99.90
52397;DHT22;38322;53.108;6.308;2022-09-28T16:00:04;11.80;99.90
52397;DHT22;38322;53.108;6.308;2022-09-28T16:02:30;11.70;99.90
52397;DHT22;38322;53.108;6.308;2022-09-28T16:04:59;11.70;99.90
52397;DHT22;38322;53.108;6.308;2022-09-28T16:07:35;11.70;99.90
52397;DHT22;38322;53.108;6.308;2022-09-28T16:15:11;11.50;99.90
52397;DHT22;38322;53.108;6.308;2022-09-28T16:17:54;11.40;99.90
52397;DHT22;38322;53.108;6.308;2022-09-28T16:20:24;11.40;99.90
52397;DHT22;38322;53.108;6.308;2022-09-28T16:22:54;11.40;99.90
52397;DHT22;38322;53.108;6.308;2022-09-28T16:25:24;11.30;99.90
52397;DHT22;38322;53.108;6.308;2022-09-28T16:27:52;11.30;99.90
52397;DHT22;38322;53.108;6.308;2022-09-28T16:30:26;11.30;99.90
52397;DHT22;38322;53.108;6.308;2022-09-28T16:32:58;11.20;99.90
52397;DHT22;38322;53.108;6.308;2022-09-28T16:35:29;11.20;99.90
52397;DHT22;38322;53.108;6.308;2022-09-28T16:38:09;11.10;99.90
52397;DHT22;38322;53.108;6.308;2022-09-28T16:40:40;11.10;99.90
52397;DHT22;38322;53.108;6.308;2022-09-28T16:43:08;11.00;99.90
52397;DHT22;38322;53.108;6.308;2022-09-28T16:45:40;10.80;99.90
52397;DHT22;38322;53.108;6.308;2022-09-28T16:48:09;10.70;99.90
52397;DHT22;38322;53.108;6.308;2022-09-28T16:50:38;10.70;99.90
52397;DHT22;38322;53.108;6.308;2022-09-28T16:53:14;10.70;99.90
52397;DHT22;38322;53.108;6.308;2022-09-28T16:55:59;10.70;99.90
52397;DHT22;38322;53.108;6.308;2022-09-28T16:58:26;10.60;99.90
52397;DHT22;38322;53.108;6.308;2022-09-28T17:00:53;10.50;99.90
52397;DHT22;38322;53.108;6.308;2022-09-28T17:03:20;10.60;99.90
52397;DHT22;38322;53.108;6.308;2022-09-28T17:05:48;10.50;99.90
52397;DHT22;38322;53.108;6.308;2022-09-28T17:08:16;10.50;99.90
52397;DHT22;38322;53.108;6.308;2022-09-28T17:13:13;10.30;99.90
52397;DHT22;38322;53.108;6.308;2022-09-28T17:15:41;10.20;99.90
52397;DHT22;38322;53.108;6.308;2022-09-28T17:18:11;10.10;99.90
52397;DHT22;38322;53.108;6.308;2022-09-28T17:20:39;10.10;99.90
52397;DHT22;38322;53.108;6.308;2022-09-28T17:23:06;10.10;99.90
52397;DHT22;38322;53.108;6.308;2022-09-28T17:25:32;10.00;99.90
52397;DHT22;38322;53.108;6.308;2022-09-28T17:27:58;10.00;99.90
52397;DHT22;38322;53.108;6.308;2022-09-28T17:30:24;10.00;99.90
52397;DHT22;38322;53.108;6.308;2022-09-28T17:32:50;10.00;99.90
52397;DHT22;38322;53.108;6.308;2022-09-28T17:35:17;10.00;99.90
52397;DHT22;38322;53.108;6.308;2022-09-28T17:37:43;10.00;99.90
52397;DHT22;38322;53.108;6.308;2022-09-28T17:40:21;9.90;99.90
52397;DHT22;38322;53.108;6.308;2022-09-28T17:42:47;9.90;99.90
52397;DHT22;38322;53.108;6.308;2022-09-28T17:45:14;9.80;99.90
52397;DHT22;38322;53.108;6.308;2022-09-28T17:47:41;9.80;99.90
52397;DHT22;38322;53.108;6.308;2022-09-28T17:50:19;9.80;99.90
52397;DHT22;38322;53.108;6.308;2022-09-28T17:52:46;9.70;99.90
52397;DHT22;38322;53.108;6.308;2022-09-28T17:55:18;9.60;99.90
52397;DHT22;38322;53.108;6.308;2022-09-28T17:57:44;9.70;99.90
52397;DHT22;38322;53.108;6.308;2022-09-28T18:00:10;9.70;99.90
52397;DHT22;38322;53.108;6.308;2022-09-28T18:02:37;9.70;99.90
52397;DHT22;38322;53.108;6.308;2022-09-28T18:05:03;9.70;99.90
52397;DHT22;38322;53.108;6.308;2022-09-28T18:07:29;9.70;99.90
52397;DHT22;38322;53.108;6.308;2022-09-28T18:09:59;9.60;99.90
52397;DHT22;38322;53.108;6.308;2022-09-28T18:12:25;9.50;99.90
52397;DHT22;38322;53.108;6.308;2022-09-28T18:14:52;9.50;99.90
52397;DHT22;38322;53.108;6.308;2022-09-28T18:17:18;9.50;99.90
52397;DHT22;38322;53.108;6.308;2022-09-28T18:19:44;9.50;99.90
52397;DHT22;38322;53.108;6.308;2022-09-28T18:22:09;9.50;99.90
52397;DHT22;38322;53.108;6.308;2022-09-28T18:24:35;9.40;99.90
52397;DHT22;38322;53.108;6.308;2022-09-28T18:27:01;9.50;99.90
52397;DHT22;38322;53.108;6.308;2022-09-28T18:29:27;9.40;99.90
52397;DHT22;38322;53.108;6.308;2022-09-28T18:31:53;9.40;99.90
52397;DHT22;38322;53.108;6.308;2022-09-28T18:34:18;9.30;99.90
52397;DHT22;38322;53.108;6.308;2022-09-28T18:36:44;9.30;99.90
52397;DHT22;38322;53.108;6.308;2022-09-28T18:39:10;9.20;99.90
52397;DHT22;38322;53.108;6.308;2022-09-28T18:41:36;9.10;99.90
52397;DHT22;38322;53.108;6.308;2022-09-28T18:44:02;9.10;99.90
52397;DHT22;38322;53.108;6.308;2022-09-28T18:46:28;9.10;99.90
52397;DHT22;38322;53.108;6.308;2022-09-28T18:48:54;9.00;99.90
52397;DHT22;38322;53.108;6.308;2022-09-28T18:51:21;9.00;99.90
52397;DHT22;38322;53.108;6.308;2022-09-28T18:53:47;9.10;99.90
52397;DHT22;38322;53.108;6.308;2022-09-28T18:56:15;9.10;99.90
52397;DHT22;38322;53.108;6.308;2022-09-28T18:58:47;9.10;99.90
52397;DHT22;38322;53.108;6.308;2022-09-28T19:01:18;9.00;99.90
52397;DHT22;38322;53.108;6.308;2022-09-28T19:03:44;9.00;99.90
52397;DHT22;38322;53.108;6.308;2022-09-28T19:06:11;8.90;99.90
52397;DHT22;38322;53.108;6.308;2022-09-28T19:08:38;8.90;99.90
52397;DHT22;38322;53.108;6.308;2022-09-28T19:11:07;8.90;99.90
52397;DHT22;38322;53.108;6.308;2022-09-28T19:13:33;8.80;99.90
52397;DHT22;38322;53.108;6.308;2022-09-28T19:15:59;8.70;99.90
52397;DHT22;38322;53.108;6.308;2022-09-28T19:18:30;8.70;99.90
52397;DHT22;38322;53.108;6.308;2022-09-28T19:21:01;8.70;99.90
52397;DHT22;38322;53.108;6.308;2022-09-28T19:23:27;8.70;99.90
52397;DHT22;38322;53.108;6.308;2022-09-28T19:25:52;8.70;99.90
52397;DHT22;38322;53.108;6.308;2022-09-28T19:28:18;8.70;99.90
52397;DHT22;38322;53.108;6.308;2022-09-28T19:30:44;8.60;99.90
52397;DHT22;38322;53.108;6.308;2022-09-28T19:33:10;8.50;99.90
52397;DHT22;38322;53.108;6.308;2022-09-28T19:35:35;8.50;99.90
52397;DHT22;38322;53.108;6.308;2022-09-28T19:38:01;8.50;99.90
52397;DHT22;38322;53.108;6.308;2022-09-28T19:40:27;8.50;99.90
52397;DHT22;38322;53.108;6.308;2022-09-28T19:42:53;8.50;99.90
52397;DHT22;38322;53.108;6.308;2022-09-28T19:45:19;8.50;99.90
52397;DHT22;38322;53.108;6.308;2022-09-28T19:47:47;8.50;99.90
52397;DHT22;38322;53.108;6.308;2022-09-28T19:50:13;8.50;99.90
52397;DHT22;38322;53.108;6.308;2022-09-28T19:52:39;8.40;99.90
52397;DHT22;38322;53.108;6.308;2022-09-28T19:55:05;8.40;99.90
52397;DHT22;38322;53.108;6.308;2022-09-28T19:57:31;8.30;99.90
52397;DHT22;38322;53.108;6.308;2022-09-28T19:59:57;8.20;99.90
